Decatur, New York
Current Conditions -  °F | °C
As of 9:35 AM on Tuesday 21 Oct 2014 (Local Time) from KNY0 Reporting Station
Overcast Overcast  
Wind Chill: 43°   Ceiling: 5500
Heat Index: 45°   Visibility: 10mi
Dew Point: 43°   Wind: 5mph
Humidity: 91%   Direction: 80°E
Pressure: 29.91"   Gusts: NA
Location:  42.6106°N, 74.7208°W
Report Text: KNY0 211335Z AUTO 08004KT 10SM OVC055 07/06 A2991 RMK AO2 T00730060
Loading
Personal Weather Stations






























Interactive Weather Map
Tropical Storm Tracking
New forecast layout! Learn more

10-Day Weather Forecast

Advertisements
Track Severe Weather on mobile